Impacts METAR Board
IDs:

KMLB - Melbourne Intl, FL, US

Updated at: 0200 UTC 12 May 2021
Potential Impact None Slight Moderate High
Time 11/14Z 11/15Z 11/16Z 11/17Z 11/18Z 11/19Z 11/20Z 11/21Z 11/22Z 11/23Z 12/00Z 12/01Z 12/02Z
Temp82 85 87 87 86 87 84 84 86 83 82 80 80
Dewpt69 69 66 64 67 68 69 69 68 70 73 74 74
Altim30.10 30.11 30.10 30.08 30.07 30.04 30.02 30.02 30.02 30.01 30.06 30.05 30.06
VIS10 10 10 10 10 10 10 10 10 10 10 10 10
CIG-- -- -- -- -- -- -- 100 -- -- -- -- --
CoverCLRCLRCLRCLRSCTSCTFEWBKNSCTCLRSCTCLRCLR
FltCatVFRVFRVFRVFRVFRVFRVFRVFRVFRVFRVFRVFRVFR
WX--------------------------
WDir050901101001001201201101102080120
WSpd0 6 7 9 9 11 11 10 10 10 5 5 4
WGst-- -- -- -- -- -- -- -- -- -- -- -- --
Raw hourly METARs
KMLB 111353Z 00000KT 10SM CLR 28/21 A3010 RMK AO2 SLP191 T02780206
KMLB 111453Z 05006KT 10SM CLR 29/21 A3011 RMK AO2 SLP196 T02940206 53010
KMLB 111553Z 09007KT 10SM CLR 31/19 A3010 RMK AO2 SLP192 T03060189
KMLB 111653Z 11009KT 10SM CLR 31/18 A3008 RMK AO2 SLP185 T03060178
KMLB 111753Z 10009KT 10SM SCT050 30/19 A3007 RMK AO2 SLP180 T03000194 10311 20233 58016
KMLB 111853Z AUTO 10011KT 10SM SCT050 31/20 A3004 RMK AO2 SLP172 T03060200
KMLB 111953Z 12011KT 10SM FEW050 29/21 A3002 RMK AO2 SLP166 T02890206
KMLB 112053Z 12010KT 10SM BKN100 29/21 A3002 RMK AO2 SLP164 T02890206 56016
KMLB 112153Z 11010KT 10SM SCT100 30/20 A3002 RMK AO2 LTG DSNT N SLP164 T03000200
KMLB 112253Z 11010KT 10SM CLR 28/21 A3001 RMK AO2 LTG DSNT NW SLP163 T02830211
KMLB 112353Z 02005KT 10SM SCT040 28/23 A3006 RMK AO2 SLP177 TS NW MOV E FQT LTG ICCCCG T02780228 10311 20278 53014
KMLB 120053Z 08005KT 10SM CLR 27/23 A3005 RMK AO2 SLP174 T02670233
KMLB 120153Z 12004KT 10SM CLR 27/23 A3006 RMK AO2 SLP178 T02670233



Page loaded:  02:07 UTC  |   07:07 PM Pacific  |   08:07 PM Mountain  |   09:07 PM Central  |   10:07 PM Eastern

 

ADVISORIES

FORECASTS

FORECASTS

OBSERVATIONS

USER TOOLS

ABOUT US